カーブル の空港の天気 - METARとTAF

カーブル国際空港 ( OAKB / KBL ) - アフガニスタン カーブル
飛行場実況気象(Metar)
観測時間08/22 21:20 AFT (08/22 16:50 UTC)
風向・風速東 3m/s
視程10km以上
天気現象
なし
気温24℃
湿度47%
気圧1015hPa
METAROAKB 221650Z 09006KT CAVOK 24/12 Q1015 NOSIG RMK A2998 BLU BLU
過去の天気等 Google飛行場航空写真 Wunderground天気予報

過去48時間のMETAR

飛行場予報(TAF)
発表時間: 8/22 15:35 AFT (8/22 11:05 UTC)
予報対象時間: 22日16時 AFT ~ 23日16時 AFT
風向・風速北北東 6m/s
視程10km以上
なし
22日16時 AFT ~ 22日20時 AFT に一時的に
風向・風速北北東 8m/s 瞬間風速 13m/s
22日22時 AFT ~ 23日24時 AFT に徐々に
風向・風速不定 1m/s
23日10時 AFT ~ 23日12時 AFT に徐々に
風向・風速東 6m/s
少しの雲 雲底高度 3050m
全天の4割程度の雲 雲底高度 6100m
TAF OAKB 221105Z 2212/2312 03012KT CAVOK
TEMPO 2212/2216 03015G25KT
BECMG 2218/2220 VRB02KT
BECMG 2306/2308 08012KT FEW100 SCT200